Time;durP1;ratioP1;P1;durP2;ratioP2;P2;SDS_P1;SDS_P2;PMS_P1;PMS_P2;Temp;Humidity;BMP_temperature;BMP_pressure;BME280_temperature;BME280_humidity;BME280_pressure;Samples;Min_cycle;Max_cycle;Signal;HPM_P1;HPM_P2
2023/10/07 00:01:11;;;;;;;;;;;;;;;;;;5031957;28;20028;-72
2023/10/07 00:03:40;;;;;;;;;;;;;;;;;;5031785;28;20431;-71
2023/10/07 00:06:09;;;;;;;;;;;;;;;;;;5031788;28;20037;-71
2023/10/07 00:08:37;;;;;;;;;;;;;;;;;;5031913;28;19990;-72
2023/10/07 00:11:11;;;;;;;;;;;;;;;;;;5030216;28;20014;-70
2023/10/07 00:13:40;;;;;;;;;;;;;;;;;;5030283;28;19986;-71
2023/10/07 00:16:06;;;;;;;;;;;;;;;;;;5030315;28;19990;-71
2023/10/07 00:18:34;;;;;;;;;;;;;;;;;;5031479;28;20008;-71
2023/10/07 00:21:02;;;;;;;;;;;;;;;;;;5030296;28;20018;-71
2023/10/07 00:23:28;;;;;;;;;;;;;;;;;;5031503;28;20415;-70
2023/10/07 00:25:54;;;;;;;;;;;;;;;;;;5031474;28;19993;-71
2023/10/07 00:28:32;;;;;;;;;;;;;;;;;;5031521;28;19986;-73
2023/10/07 00:31:02;;;;;;;;;;;;;;;;;;5031513;28;20108;-72
2023/10/07 00:33:30;;;;;;;;;;;;;;;;;;5031447;28;19987;-72
2023/10/07 00:35:57;;;;;;;;;;;;;;;;;;5031444;28;19989;-72
2023/10/07 00:38:24;;;;;;;;;;;;;;;;;;5031507;28;19986;-73
2023/10/07 00:40:53;;;;;;;;;;;;;;;;;;5031465;28;20028;-71
2023/10/07 00:43:20;;;;;;;;;;;;;;;;;;5031360;28;20044;-70
2023/10/07 00:45:46;;;;;;;;;;;;;;;;;;5030990;28;20371;-71
2023/10/07 00:48:16;;;;;;;;;;;;;;;;;;5031543;28;20470;-71
2023/10/07 00:50:42;;;;;;;;;;;;;;;;;;5031067;28;20010;-72
2023/10/07 00:53:09;;;;;;;;;;;;;;;;;;5031383;28;20116;-71
2023/10/07 00:55:37;;;;;;;;;;;;;;;;;;5031459;28;20004;-71
2023/10/07 00:58:26;;;;;;;;;;;;;;;;;;5031404;28;19982;-71
2023/10/07 01:00:55;;;;;;;;;;;;;;;;;;5031109;28;19986;-71
2023/10/07 01:08:44;;;;;;;;;;;;;;;;;;5035206;28;19979;-71
2023/10/07 01:13:51;;;;;;;;;;;;;;;;;;5035212;28;20029;-71
2023/10/07 01:16:27;;;;;;;;;;;;;;;;;;5035064;28;19985;-71
2023/10/07 01:18:59;;;;;;;;;;;;;;;;;;5033625;28;19986;-71
2023/10/07 01:21:32;;;;;;;;;;;;;;;;;;5035048;28;19990;-71
2023/10/07 01:23:58;;;;;;;;;;;;;;;;;;5034956;28;19986;-71
2023/10/07 01:26:29;;;;;;;;;;;;;;;;;;5035043;28;20040;-70
2023/10/07 01:29:12;;;;;;;;;;;;;;;;;;5033514;28;20029;-70
2023/10/07 01:31:42;;;;;;;;;;;;;;;;;;5034937;28;19990;-71
2023/10/07 01:34:13;;;;;;;;;;;;;;;;;;5034784;28;20028;-71
2023/10/07 01:36:40;;;;;;;;;;;;;;;;;;5033343;28;19990;-71
2023/10/07 01:39:06;;;;;;;;;;;;;;;;;;5033240;28;19986;-71
2023/10/07 01:41:38;;;;;;;;;;;;;;;;;;5033169;28;20001;-71
2023/10/07 01:44:08;;;;;;;;;;;;;;;;;;5034636;28;19993;-71
2023/10/07 01:46:34;;;;;;;;;;;;;;;;;;5034270;28;20018;-71
2023/10/07 01:49:12;;;;;;;;;;;;;;;;;;5034340;28;20036;-71
2023/10/07 01:51:38;;;;;;;;;;;;;;;;;;5034285;28;20033;-71
2023/10/07 01:54:08;;;;;;;;;;;;;;;;;;5033081;28;20021;-72
2023/10/07 01:56:34;;;;;;;;;;;;;;;;;;5032846;28;20036;-71
2023/10/07 02:01:42;;;;;;;;;;;;;;;;;;5034161;28;19981;-70
2023/10/07 02:04:17;;;;;;;;;;;;;;;;;;5034169;28;20056;-71
2023/10/07 02:06:51;;;;;;;;;;;;;;;;;;5034099;28;20004;-71
2023/10/07 02:09:23;;;;;;;;;;;;;;;;;;5033926;28;20089;-71
2023/10/07 02:11:49;;;;;;;;;;;;;;;;;;5032604;28;20040;-71
2023/10/07 02:14:15;;;;;;;;;;;;;;;;;;5033830;28;20350;-71
2023/10/07 02:16:41;;;;;;;;;;;;;;;;;;5033988;28;19990;-73
2023/10/07 02:19:14;;;;;;;;;;;;;;;;;;5034044;28;19993;-70
2023/10/07 02:21:41;;;;;;;;;;;;;;;;;;5033677;28;19990;-71
2023/10/07 02:24:08;;;;;;;;;;;;;;;;;;5033858;28;19982;-70
2023/10/07 02:26:34;;;;;;;;;;;;;;;;;;5033749;28;19986;-71
2023/10/07 02:29:07;;;;;;;;;;;;;;;;;;5033673;28;19993;-71
2023/10/07 02:31:43;;;;;;;;;;;;;;;;;;5032364;28;19990;-70
2023/10/07 02:34:21;;;;;;;;;;;;;;;;;;5033732;28;20476;-72
2023/10/07 02:36:51;;;;;;;;;;;;;;;;;;5033616;28;19981;-70
2023/10/07 02:39:39;;;;;;;;;;;;;;;;;;5032247;28;20465;-70
2023/10/07 02:42:05;;;;;;;;;;;;;;;;;;5033651;28;19986;-71
2023/10/07 02:44:31;;;;;;;;;;;;;;;;;;5033255;28;20025;-71
2023/10/07 02:46:57;;;;;;;;;;;;;;;;;;5033136;28;19990;-70
2023/10/07 02:49:25;;;;;;;;;;;;;;;;;;5033209;28;20006;-70
2023/10/07 02:51:59;;;;;;;;;;;;;;;;;;5033239;28;19989;-71
2023/10/07 02:54:33;;;;;;;;;;;;;;;;;;5033427;28;20033;-71
2023/10/07 02:57:11;;;;;;;;;;;;;;;;;;5033250;28;19990;-71
2023/10/07 02:59:42;;;;;;;;;;;;;;;;;;5033043;28;19993;-70
2023/10/07 03:07:34;;;;;;;;;;;;;;;;;;5033106;28;19978;-71
2023/10/07 03:10:29;;;;;;;;;;;;;;;;;;5032840;28;20108;-70
2023/10/07 03:12:58;;;;;;;;;;;;;;;;;;5032648;28;19986;-71
2023/10/07 03:15:41;;;;;;;;;;;;;;;;;;5032983;28;19990;-72
2023/10/07 03:18:21;;;;;;;;;;;;;;;;;;5032805;28;19986;-71
2023/10/07 03:20:59;;;;;;;;;;;;;;;;;;5032848;28;19989;-71
2023/10/07 03:23:26;;;;;;;;;;;;;;;;;;5032674;28;19982;-70
2023/10/07 03:28:20;;;;;;;;;;;;;;;;;;5032304;28;20032;-71
2023/10/07 03:30:55;;;;;;;;;;;;;;;;;;5032567;28;20064;-70
2023/10/07 03:33:43;;;;;;;;;;;;;;;;;;5031005;28;20039;-71
2023/10/07 03:36:16;;;;;;;;;;;;;;;;;;5032614;28;19989;-71
2023/10/07 03:38:43;;;;;;;;;;;;;;;;;;5032291;28;20131;-70
2023/10/07 03:41:09;;;;;;;;;;;;;;;;;;5032354;28;19989;-71
2023/10/07 03:43:35;;;;;;;;;;;;;;;;;;5032230;28;19986;-71
2023/10/07 03:46:01;;;;;;;;;;;;;;;;;;5031958;28;20022;-71
2023/10/07 03:48:34;;;;;;;;;;;;;;;;;;5032216;28;19982;-71
2023/10/07 03:51:05;;;;;;;;;;;;;;;;;;5032012;28;20640;-71
2023/10/07 03:53:44;;;;;;;;;;;;;;;;;;5031885;28;19982;-71
2023/10/07 03:56:10;;;;;;;;;;;;;;;;;;5030617;28;20429;-71
2023/10/07 03:58:36;;;;;;;;;;;;;;;;;;5031938;28;20034;-71
2023/10/07 04:01:11;;;;;;;;;;;;;;;;;;5030673;28;20084;-71
2023/10/07 04:03:37;;;;;;;;;;;;;;;;;;5031767;28;20460;-71
2023/10/07 04:06:04;;;;;;;;;;;;;;;;;;5031746;28;19998;-71
2023/10/07 04:08:32;;;;;;;;;;;;;;;;;;5031900;28;20017;-72
2023/10/07 04:10:58;;;;;;;;;;;;;;;;;;5031579;28;20048;-71
2023/10/07 04:13:24;;;;;;;;;;;;;;;;;;5031715;28;20478;-70
2023/10/07 04:15:53;;;;;;;;;;;;;;;;;;5031620;28;20009;-71
2023/10/07 04:18:26;;;;;;;;;;;;;;;;;;5031906;28;19994;-72
2023/10/07 04:20:57;;;;;;;;;;;;;;;;;;5030446;28;19993;-71
2023/10/07 04:23:27;;;;;;;;;;;;;;;;;;5031697;28;20029;-71
2023/10/07 04:25:56;;;;;;;;;;;;;;;;;;5031614;28;20088;-72
2023/10/07 04:28:22;;;;;;;;;;;;;;;;;;5031558;28;19982;-71
2023/10/07 04:30:53;;;;;;;;;;;;;;;;;;5031472;28;20502;-71
2023/10/07 04:33:25;;;;;;;;;;;;;;;;;;5031592;28;19993;-70
2023/10/07 04:35:51;;;;;;;;;;;;;;;;;;5031529;28;20024;-71
2023/10/07 04:43:45;;;;;;;;;;;;;;;;;;5031305;28;19989;-71
2023/10/07 04:46:29;;;;;;;;;;;;;;;;;;5029907;28;20033;-71
2023/10/07 04:48:55;;;;;;;;;;;;;;;;;;5031359;28;19982;-70
2023/10/07 04:52:05;;;;;;;;;;;;;;;;;;5031468;28;20109;-72
2023/10/07 04:54:11;;;;;;;;;;;;;;;;;;5028185;28;19986;-71
2023/10/07 04:56:37;;;;;;;;;;;;;;;;;;5031272;28;20040;-71
2023/10/07 04:59:06;;;;;;;;;;;;;;;;;;5031235;28;20354;-70
2023/10/07 05:01:33;;;;;;;;;;;;;;;;;;5031273;28;20493;-72
2023/10/07 05:04:03;;;;;;;;;;;;;;;;;;5031251;28;19993;-71
2023/10/07 05:06:30;;;;;;;;;;;;;;;;;;5029786;28;20009;-71
2023/10/07 05:08:56;;;;;;;;;;;;;;;;;;5031152;28;20119;-71
2023/10/07 05:11:26;;;;;;;;;;;;;;;;;;5029743;28;20079;-71
2023/10/07 05:13:52;;;;;;;;;;;;;;;;;;5031201;28;19982;-70
2023/10/07 05:16:19;;;;;;;;;;;;;;;;;;5031099;28;19982;-70
2023/10/07 05:18:45;;;;;;;;;;;;;;;;;;5031091;28;19982;-70
2023/10/07 05:21:11;;;;;;;;;;;;;;;;;;5031184;28;20351;-69
2023/10/07 05:23:41;;;;;;;;;;;;;;;;;;5031435;28;20077;-70
2023/10/07 05:26:09;;;;;;;;;;;;;;;;;;5031066;28;20135;-70
2023/10/07 05:28:35;;;;;;;;;;;;;;;;;;5031286;28;19989;-70
2023/10/07 05:31:03;;;;;;;;;;;;;;;;;;5030942;28;20014;-69
2023/10/07 05:33:32;;;;;;;;;;;;;;;;;;5031237;28;19986;-70
2023/10/07 05:35:58;;;;;;;;;;;;;;;;;;5031058;28;20028;-70
2023/10/07 05:38:25;;;;;;;;;;;;;;;;;;5035311;28;20013;-71
2023/10/07 05:40:51;;;;;;;;;;;;;;;;;;5050506;28;19993;-70
2023/10/07 05:43:17;;;;;;;;;;;;;;;;;;5050523;28;20010;-70
2023/10/07 05:45:45;;;;;;;;;;;;;;;;;;5050515;28;20018;-70
2023/10/07 05:48:11;;;;;;;;;;;;;;;;;;5043852;28;19990;-70
2023/10/07 05:50:36;;;;;;;;;;;;;;;;;;5052163;28;20021;-69
2023/10/07 05:53:02;;;;;;;;;;;;;;;;;;5051201;28;20039;-70
2023/10/07 05:55:29;;;;;;;;;;;;;;;;;;5040187;28;19993;-71
2023/10/07 05:57:55;;;;;;;;;;;;;;;;;;5034953;28;19994;-72
2023/10/07 06:00:24;;;;;;;;;;;;;;;;;;5041312;28;20081;-73
2023/10/07 06:02:52;;;;;;;;;;;;;;;;;;5038311;28;20367;-72
2023/10/07 06:05:20;;;;;;;;;;;;;;;;;;5046004;28;20049;-74
2023/10/07 06:07:46;;;;;;;;;;;;;;;;;;5043083;28;19993;-72
2023/10/07 06:10:12;;;;;;;;;;;;;;;;;;5033549;28;20014;-71
2023/10/07 06:12:40;;;;;;;;;;;;;;;;;;5032804;28;19986;-72
2023/10/07 06:15:08;;;;;;;;;;;;;;;;;;5034097;28;19986;-73
2023/10/07 06:17:34;;;;;;;;;;;;;;;;;;5046096;28;20047;-73
2023/10/07 06:20:13;;;;;;;;;;;;;;;;;;5053803;28;20025;-72
2023/10/07 06:22:45;;;;;;;;;;;;;;;;;;5046443;28;19986;-73
2023/10/07 06:25:12;;;;;;;;;;;;;;;;;;5036340;28;20338;-73
2023/10/07 06:27:42;;;;;;;;;;;;;;;;;;5034870;28;19994;-70
2023/10/07 06:30:09;;;;;;;;;;;;;;;;;;5033451;28;20029;-70
2023/10/07 06:32:44;;;;;;;;;;;;;;;;;;5034535;28;19987;-71
2023/10/07 06:35:13;;;;;;;;;;;;;;;;;;5041898;28;20206;-72
2023/10/07 06:37:39;;;;;;;;;;;;;;;;;;5050132;28;19993;-72
2023/10/07 06:40:21;;;;;;;;;;;;;;;;;;5043243;28;20056;-72
2023/10/07 06:42:47;;;;;;;;;;;;;;;;;;5033480;28;19982;-72
2023/10/07 06:45:17;;;;;;;;;;;;;;;;;;5051636;28;20504;-72
2023/10/07 06:47:43;;;;;;;;;;;;;;;;;;5032855;28;19986;-72
2023/10/07 06:50:17;;;;;;;;;;;;;;;;;;5049678;28;20016;-74
2023/10/07 06:52:44;;;;;;;;;;;;;;;;;;5047779;28;19982;-73
2023/10/07 06:55:10;;;;;;;;;;;;;;;;;;5033793;28;19997;-73
2023/10/07 06:57:36;;;;;;;;;;;;;;;;;;5042239;28;19986;-72
2023/10/07 07:00:09;;;;;;;;;;;;;;;;;;5048175;28;19990;-73
2023/10/07 07:02:35;;;;;;;;;;;;;;;;;;5041132;28;19992;-72
2023/10/07 07:05:02;;;;;;;;;;;;;;;;;;5044713;28;20008;-72
2023/10/07 07:07:28;;;;;;;;;;;;;;;;;;5051001;28;20426;-72
2023/10/07 07:09:58;;;;;;;;;;;;;;;;;;5063691;28;20002;-69
2023/10/07 07:12:26;;;;;;;;;;;;;;;;;;5052736;28;19985;-72
2023/10/07 07:14:59;;;;;;;;;;;;;;;;;;5050984;28;19989;-73
2023/10/07 07:22:35;;;;;;;;;;;;;;;;;;5052581;28;19989;-72
2023/10/07 07:25:05;;;;;;;;;;;;;;;;;;5049862;28;20044;-72
2023/10/07 07:27:34;;;;;;;;;;;;;;;;;;5049190;28;20084;-70
2023/10/07 07:30:03;;;;;;;;;;;;;;;;;;5052532;28;20103;-70
2023/10/07 07:32:32;;;;;;;;;;;;;;;;;;5052575;28;19981;-72
2023/10/07 07:35:02;;;;;;;;;;;;;;;;;;5043888;28;20503;-70
2023/10/07 07:37:31;;;;;;;;;;;;;;;;;;5032229;28;19986;-71
2023/10/07 07:39:59;;;;;;;;;;;;;;;;;;5035840;28;20110;-71
2023/10/07 07:42:27;;;;;;;;;;;;;;;;;;5052284;28;19986;-70
2023/10/07 07:44:57;;;;;;;;;;;;;;;;;;5051960;28;20025;-71
2023/10/07 07:47:23;;;;;;;;;;;;;;;;;;5052014;28;19982;-70
2023/10/07 07:49:51;;;;;;;;;;;;;;;;;;5052163;28;20020;-74
2023/10/07 07:52:17;;;;;;;;;;;;;;;;;;5043502;28;20454;-72
2023/10/07 07:54:42;;;;;;;;;;;;;;;;;;5047852;28;20000;-69
2023/10/07 07:57:08;;;;;;;;;;;;;;;;;;5038339;28;19998;-70
2023/10/07 07:59:34;;;;;;;;;;;;;;;;;;5036898;28;19993;-72
2023/10/07 08:02:13;;;;;;;;;;;;;;;;;;5033856;28;20041;-73
2023/10/07 08:04:42;;;;;;;;;;;;;;;;;;5049716;28;19985;-71
2023/10/07 08:07:25;;;;;;;;;;;;;;;;;;5046240;28;20108;-70
2023/10/07 08:09:51;;;;;;;;;;;;;;;;;;5033114;28;21046;-71
2023/10/07 08:12:19;;;;;;;;;;;;;;;;;;5042067;28;20034;-71
2023/10/07 08:14:45;;;;;;;;;;;;;;;;;;5031382;28;19986;-71
2023/10/07 08:17:12;;;;;;;;;;;;;;;;;;5034741;28;20345;-71
2023/10/07 08:19:38;;;;;;;;;;;;;;;;;;5039801;28;19982;-71
2023/10/07 08:22:12;;;;;;;;;;;;;;;;;;5040261;28;19989;-71
2023/10/07 08:24:39;;;;;;;;;;;;;;;;;;5031573;28;20469;-71
2023/10/07 08:27:43;;;;;;;;;;;;;;;;;;5031502;28;20018;-71
2023/10/07 08:29:54;;;;;;;;;;;;;;;;;;5034585;28;20059;-73
2023/10/07 08:32:35;;;;;;;;;;;;;;;;;;5039397;28;19990;-72
2023/10/07 08:35:01;;;;;;;;;;;;;;;;;;5032317;28;20385;-72
2023/10/07 08:37:32;;;;;;;;;;;;;;;;;;5031291;28;19990;-71
2023/10/07 08:40:08;;;;;;;;;;;;;;;;;;5033504;28;19990;-72
2023/10/07 08:42:35;;;;;;;;;;;;;;;;;;5038292;28;20076;-69
2023/10/07 08:45:01;;;;;;;;;;;;;;;;;;5050129;28;20507;-70
2023/10/07 08:47:27;;;;;;;;;;;;;;;;;;5051010;28;19986;-70
2023/10/07 08:49:56;;;;;;;;;;;;;;;;;;5051300;28;20017;-70
2023/10/07 08:52:27;;;;;;;;;;;;;;;;;;5049975;28;19992;-70
2023/10/07 08:54:53;;;;;;;;;;;;;;;;;;5038401;28;19997;-70
2023/10/07 08:57:22;;;;;;;;;;;;;;;;;;5031194;28;19986;-71
2023/10/07 08:59:52;;;;;;;;;;;;;;;;;;5043595;28;19986;-70
2023/10/07 09:02:27;;;;;;;;;;;;;;;;;;5041778;28;19994;-70
2023/10/07 09:04:54;;;;;;;;;;;;;;;;;;5065013;28;20461;-70
2023/10/07 09:07:20;;;;;;;;;;;;;;;;;;5055329;28;19994;-69
2023/10/07 09:09:47;;;;;;;;;;;;;;;;;;5050445;28;20092;-68
2023/10/07 09:12:18;;;;;;;;;;;;;;;;;;5067150;28;19982;-71
2023/10/07 09:14:47;;;;;;;;;;;;;;;;;;5059801;28;19992;-70
2023/10/07 09:17:13;;;;;;;;;;;;;;;;;;5061062;28;20727;-70
2023/10/07 09:19:43;;;;;;;;;;;;;;;;;;5055236;28;20361;-69
2023/10/07 09:22:14;;;;;;;;;;;;;;;;;;5055313;28;20017;-69
2023/10/07 09:24:44;;;;;;;;;;;;;;;;;;5062526;28;20505;-70
2023/10/07 09:27:13;;;;;;;;;;;;;;;;;;5060217;28;19990;-69
2023/10/07 09:29:39;;;;;;;;;;;;;;;;;;5071248;28;20005;-68
2023/10/07 09:32:07;;;;;;;;;;;;;;;;;;5060703;28;20001;-67
2023/10/07 09:34:41;;;;;;;;;;;;;;;;;;5064481;28;19982;-67
2023/10/07 09:37:11;;;;;;;;;;;;;;;;;;5069374;28;19989;-68
2023/10/07 09:39:44;;;;;;;;;;;;;;;;;;5058106;28;19996;-66
2023/10/07 09:44:55;;;;;;;;;;;;;;;;;;5053972;28;20047;-67
2023/10/07 09:47:21;;;;;;;;;;;;;;;;;;5055222;28;20004;-67
2023/10/07 09:49:47;;;;;;;;;;;;;;;;;;5067322;28;20001;-66
2023/10/07 09:52:19;;;;;;;;;;;;;;;;;;5057417;28;20089;-67
2023/10/07 09:54:48;;;;;;;;;;;;;;;;;;5070435;28;20223;-68
2023/10/07 09:57:20;;;;;;;;;;;;;;;;;;5064786;28;19989;-68
2023/10/07 09:59:48;;;;;;;;;;;;;;;;;;5052764;28;19989;-68
2023/10/07 10:02:24;;;;;;;;;;;;;;;;;;5070113;28;20085;-69
2023/10/07 10:04:51;;;;;;;;;;;;;;;;;;5057356;28;20005;-69
2023/10/07 10:07:17;;;;;;;;;;;;;;;;;;5061365;28;20386;-70
2023/10/07 10:10:05;;;;;;;;;;;;;;;;;;5064606;28;20009;-72
2023/10/07 10:12:32;;;;;;;;;;;;;;;;;;5054536;28;20008;-69
2023/10/07 10:15:50;;;;;;;;;;;;;;;;;;5052265;28;19986;-69
2023/10/07 10:17:56;;;;;;;;;;;;;;;;;;5047501;28;19993;-69
2023/10/07 10:20:27;;;;;;;;;;;;;;;;;;5043983;28;19989;-69
2023/10/07 10:22:53;;;;;;;;;;;;;;;;;;5043235;28;20575;-68
2023/10/07 10:25:53;;;;;;;;;;;;;;;;;;5043726;28;20447;-67
2023/10/07 10:28:11;;;;;;;;;;;;;;;;;;5043316;28;20040;-68
2023/10/07 10:30:40;;;;;;;;;;;;;;;;;;5040399;28;20010;-67
2023/10/07 10:33:08;;;;;;;;;;;;;;;;;;5039119;28;19986;-69
2023/10/07 10:35:34;;;;;;;;;;;;;;;;;;5043393;28;19982;-68
2023/10/07 10:37:59;;;;;;;;;;;;;;;;;;5042203;28;19990;-68
2023/10/07 10:40:31;;;;;;;;;;;;;;;;;;5042004;28;20382;-70
2023/10/07 10:42:57;;;;;;;;;;;;;;;;;;5043143;28;19986;-68
2023/10/07 10:45:29;;;;;;;;;;;;;;;;;;5043595;28;20067;-68
2023/10/07 10:47:56;;;;;;;;;;;;;;;;;;5042574;28;19986;-67
2023/10/07 10:50:23;;;;;;;;;;;;;;;;;;5042340;28;20006;-69
2023/10/07 10:52:49;;;;;;;;;;;;;;;;;;5043141;28;19989;-69
2023/10/07 10:55:15;;;;;;;;;;;;;;;;;;5042601;28;19989;-70
2023/10/07 10:57:41;;;;;;;;;;;;;;;;;;5048866;28;19997;-71
2023/10/07 11:00:18;;;;;;;;;;;;;;;;;;5052208;28;20078;-70
2023/10/07 11:02:45;;;;;;;;;;;;;;;;;;5032847;28;20443;-70
2023/10/07 11:05:12;;;;;;;;;;;;;;;;;;5031722;28;20115;-70
2023/10/07 11:07:39;;;;;;;;;;;;;;;;;;5033070;28;19992;-70
2023/10/07 11:10:05;;;;;;;;;;;;;;;;;;5032933;28;20016;-70
2023/10/07 11:12:32;;;;;;;;;;;;;;;;;;5033214;28;20036;-70
2023/10/07 11:14:59;;;;;;;;;;;;;;;;;;5032835;28;19993;-71
2023/10/07 11:17:24;;;;;;;;;;;;;;;;;;5032764;28;19986;-71
2023/10/07 11:19:54;;;;;;;;;;;;;;;;;;5052788;28;19982;-71
2023/10/07 11:22:21;;;;;;;;;;;;;;;;;;5052632;28;19986;-69
2023/10/07 11:24:49;;;;;;;;;;;;;;;;;;5046599;28;20073;-69
2023/10/07 11:27:16;;;;;;;;;;;;;;;;;;5042831;28;19989;-70
2023/10/07 11:29:42;;;;;;;;;;;;;;;;;;5043024;28;20006;-69
2023/10/07 11:32:08;;;;;;;;;;;;;;;;;;5041890;28;19989;-69
2023/10/07 11:34:36;;;;;;;;;;;;;;;;;;5042800;28;19982;-69
2023/10/07 11:37:02;;;;;;;;;;;;;;;;;;5037728;28;20001;-72
2023/10/07 11:39:28;;;;;;;;;;;;;;;;;;5032381;28;19982;-69
2023/10/07 11:41:55;;;;;;;;;;;;;;;;;;5032393;28;19986;-72
2023/10/07 11:44:20;;;;;;;;;;;;;;;;;;5043167;28;20442;-70
2023/10/07 11:46:46;;;;;;;;;;;;;;;;;;5052105;28;20079;-71
2023/10/07 11:49:15;;;;;;;;;;;;;;;;;;5055415;28;20000;-66
2023/10/07 11:51:41;;;;;;;;;;;;;;;;;;5051013;28;20488;-65
2023/10/07 11:54:07;;;;;;;;;;;;;;;;;;5052249;28;19990;-71
2023/10/07 11:56:33;;;;;;;;;;;;;;;;;;5051904;28;20080;-67
2023/10/07 11:58:59;;;;;;;;;;;;;;;;;;5051901;28;19990;-68
2023/10/07 12:01:25;;;;;;;;;;;;;;;;;;5050561;28;19990;-71
2023/10/07 12:03:51;;;;;;;;;;;;;;;;;;5051926;28;20037;-67
2023/10/07 12:06:17;;;;;;;;;;;;;;;;;;5051841;28;20050;-68
2023/10/07 12:08:43;;;;;;;;;;;;;;;;;;5051695;28;19990;-66
2023/10/07 12:11:09;;;;;;;;;;;;;;;;;;5051639;28;20017;-68
2023/10/07 12:13:35;;;;;;;;;;;;;;;;;;5051647;28;19997;-64
2023/10/07 12:16:01;;;;;;;;;;;;;;;;;;5050273;28;20017;-65
2023/10/07 12:18:27;;;;;;;;;;;;;;;;;;5036489;28;20044;-66
2023/10/07 12:20:55;;;;;;;;;;;;;;;;;;5030014;28;19982;-66
2023/10/07 12:23:21;;;;;;;;;;;;;;;;;;5030089;28;20347;-66
2023/10/07 12:25:47;;;;;;;;;;;;;;;;;;5030278;28;19986;-67
2023/10/07 12:28:13;;;;;;;;;;;;;;;;;;5030530;28;19986;-67
2023/10/07 12:30:39;;;;;;;;;;;;;;;;;;5031084;28;20417;-65
2023/10/07 12:33:05;;;;;;;;;;;;;;;;;;5031487;28;19986;-66
2023/10/07 12:35:34;;;;;;;;;;;;;;;;;;5037215;28;20012;-67
2023/10/07 12:38:00;;;;;;;;;;;;;;;;;;5051569;28;20021;-67
2023/10/07 12:40:28;;;;;;;;;;;;;;;;;;5051563;28;19985;-66
2023/10/07 12:42:54;;;;;;;;;;;;;;;;;;5051597;28;19993;-66
2023/10/07 12:45:20;;;;;;;;;;;;;;;;;;5050966;28;20013;-66
2023/10/07 12:47:51;;;;;;;;;;;;;;;;;;5051226;28;20028;-67
2023/10/07 12:50:35;;;;;;;;;;;;;;;;;;5051441;28;20010;-67
2023/10/07 12:53:04;;;;;;;;;;;;;;;;;;5051363;28;19997;-66
2023/10/07 12:55:31;;;;;;;;;;;;;;;;;;5051492;28;20029;-66
2023/10/07 12:57:57;;;;;;;;;;;;;;;;;;5051175;28;20025;-66
2023/10/07 13:00:23;;;;;;;;;;;;;;;;;;5040970;28;20041;-64
2023/10/07 13:02:49;;;;;;;;;;;;;;;;;;5049868;28;19993;-67
2023/10/07 13:05:18;;;;;;;;;;;;;;;;;;5052105;28;20006;-66
2023/10/07 13:07:44;;;;;;;;;;;;;;;;;;5035872;28;19998;-67
2023/10/07 13:10:11;;;;;;;;;;;;;;;;;;5035568;28;20006;-67
2023/10/07 13:12:37;;;;;;;;;;;;;;;;;;5035025;28;19986;-64
2023/10/07 13:15:10;;;;;;;;;;;;;;;;;;5049359;28;19986;-67
2023/10/07 13:17:37;;;;;;;;;;;;;;;;;;5053765;28;20217;-65
2023/10/07 13:20:07;;;;;;;;;;;;;;;;;;5035870;28;19992;-66
2023/10/07 13:22:33;;;;;;;;;;;;;;;;;;5035005;28;20350;-66
2023/10/07 13:24:59;;;;;;;;;;;;;;;;;;5033781;28;20012;-66
2023/10/07 13:27:26;;;;;;;;;;;;;;;;;;5045116;28;20159;-66
2023/10/07 13:29:52;;;;;;;;;;;;;;;;;;5054984;28;20013;-67
2023/10/07 13:32:18;;;;;;;;;;;;;;;;;;5047842;28;19994;-66
2023/10/07 13:34:44;;;;;;;;;;;;;;;;;;5054041;28;19992;-70
2023/10/07 13:37:11;;;;;;;;;;;;;;;;;;5043516;28;19989;-71
2023/10/07 13:39:38;;;;;;;;;;;;;;;;;;5043707;28;20081;-71
2023/10/07 13:42:09;;;;;;;;;;;;;;;;;;5045627;28;19986;-70
2023/10/07 13:44:35;;;;;;;;;;;;;;;;;;5048129;28;20398;-70
2023/10/07 13:47:01;;;;;;;;;;;;;;;;;;5045856;28;20009;-70
2023/10/07 13:49:27;;;;;;;;;;;;;;;;;;5053781;28;19986;-69
2023/10/07 13:51:56;;;;;;;;;;;;;;;;;;5048446;28;19990;-70
2023/10/07 13:54:23;;;;;;;;;;;;;;;;;;5034130;28;20043;-71
2023/10/07 13:56:53;;;;;;;;;;;;;;;;;;5034430;28;19993;-70
2023/10/07 13:59:19;;;;;;;;;;;;;;;;;;5041226;28;19982;-69
2023/10/07 14:01:46;;;;;;;;;;;;;;;;;;5054036;28;19982;-68
2023/10/07 14:04:15;;;;;;;;;;;;;;;;;;5038315;28;19990;-69
2023/10/07 14:06:41;;;;;;;;;;;;;;;;;;5034120;28;20093;-68
2023/10/07 14:09:15;;;;;;;;;;;;;;;;;;5049698;28;20714;-69
2023/10/07 14:11:41;;;;;;;;;;;;;;;;;;5051654;28;20119;-69
2023/10/07 14:14:07;;;;;;;;;;;;;;;;;;5053625;28;20029;-69
2023/10/07 14:16:34;;;;;;;;;;;;;;;;;;5053848;28;20047;-68
2023/10/07 14:19:00;;;;;;;;;;;;;;;;;;5052595;28;20443;-69
2023/10/07 14:21:26;;;;;;;;;;;;;;;;;;5037304;28;20363;-68
2023/10/07 14:23:52;;;;;;;;;;;;;;;;;;5044289;28;20001;-69
2023/10/07 14:26:19;;;;;;;;;;;;;;;;;;5050485;28;20009;-68
2023/10/07 14:28:45;;;;;;;;;;;;;;;;;;5052219;28;19993;-68
2023/10/07 14:31:11;;;;;;;;;;;;;;;;;;5053015;28;20013;-69
2023/10/07 14:33:37;;;;;;;;;;;;;;;;;;5053713;28;20073;-68
2023/10/07 14:36:09;;;;;;;;;;;;;;;;;;5047207;28;20057;-69
2023/10/07 14:38:36;;;;;;;;;;;;;;;;;;5035288;28;19986;-68
2023/10/07 14:41:02;;;;;;;;;;;;;;;;;;5039645;28;20414;-68
2023/10/07 14:43:29;;;;;;;;;;;;;;;;;;5033289;28;19986;-69
2023/10/07 14:45:55;;;;;;;;;;;;;;;;;;5039044;28;20021;-68
2023/10/07 14:48:22;;;;;;;;;;;;;;;;;;5033440;28;19982;-70
2023/10/07 14:50:48;;;;;;;;;;;;;;;;;;5036723;28;20103;-66
2023/10/07 14:53:14;;;;;;;;;;;;;;;;;;5031905;28;19986;-68
2023/10/07 14:55:46;;;;;;;;;;;;;;;;;;5051577;28;19997;-66
2023/10/07 14:58:15;;;;;;;;;;;;;;;;;;5050239;28;20310;-67
2023/10/07 15:00:41;;;;;;;;;;;;;;;;;;5051592;28;20117;-68
2023/10/07 15:03:07;;;;;;;;;;;;;;;;;;5047851;28;20456;-67
2023/10/07 15:05:37;;;;;;;;;;;;;;;;;;5036111;28;20012;-71
2023/10/07 15:08:03;;;;;;;;;;;;;;;;;;5051878;28;19989;-70
2023/10/07 15:10:29;;;;;;;;;;;;;;;;;;5048239;28;20012;-74
2023/10/07 15:12:55;;;;;;;;;;;;;;;;;;5040732;28;19998;-72
2023/10/07 15:15:21;;;;;;;;;;;;;;;;;;5032776;28;19986;-70
2023/10/07 15:17:47;;;;;;;;;;;;;;;;;;5038453;28;20056;-71
2023/10/07 15:20:15;;;;;;;;;;;;;;;;;;5038394;28;20081;-71
2023/10/07 15:22:42;;;;;;;;;;;;;;;;;;5032264;28;20343;-71
2023/10/07 15:25:08;;;;;;;;;;;;;;;;;;5032974;28;20354;-70
2023/10/07 15:27:34;;;;;;;;;;;;;;;;;;5032446;28;20518;-70
2023/10/07 15:30:00;;;;;;;;;;;;;;;;;;5032470;28;20006;-70
2023/10/07 15:32:29;;;;;;;;;;;;;;;;;;5032308;28;20005;-70
2023/10/07 15:34:56;;;;;;;;;;;;;;;;;;5033820;28;20089;-70
2023/10/07 15:37:22;;;;;;;;;;;;;;;;;;5031947;28;19997;-71
2023/10/07 15:39:48;;;;;;;;;;;;;;;;;;5037914;28;20392;-70
2023/10/07 15:42:15;;;;;;;;;;;;;;;;;;5042779;28;20065;-69
2023/10/07 15:44:42;;;;;;;;;;;;;;;;;;5036676;28;20087;-73
2023/10/07 15:47:09;;;;;;;;;;;;;;;;;;5050718;28;19989;-75
2023/10/07 15:49:35;;;;;;;;;;;;;;;;;;5032608;28;20485;-71
2023/10/07 15:52:00;;;;;;;;;;;;;;;;;;5032047;28;19990;-73
2023/10/07 15:54:28;;;;;;;;;;;;;;;;;;5031919;28;19986;-68
2023/10/07 15:56:54;;;;;;;;;;;;;;;;;;5035233;28;19989;-73
2023/10/07 15:59:20;;;;;;;;;;;;;;;;;;5047653;28;19993;-69
2023/10/07 16:01:46;;;;;;;;;;;;;;;;;;5034974;28;19994;-69
2023/10/07 16:04:12;;;;;;;;;;;;;;;;;;5034509;28;19994;-72
2023/10/07 16:06:38;;;;;;;;;;;;;;;;;;5031933;28;20126;-69
2023/10/07 16:09:12;;;;;;;;;;;;;;;;;;5045456;28;20096;-84
2023/10/07 16:11:39;;;;;;;;;;;;;;;;;;5051159;28;20014;-81
2023/10/07 16:14:05;;;;;;;;;;;;;;;;;;5051116;28;20032;-81
2023/10/07 16:16:34;;;;;;;;;;;;;;;;;;5051607;28;19990;-80
2023/10/07 16:18:59;;;;;;;;;;;;;;;;;;5053063;28;19982;-80
2023/10/07 16:21:26;;;;;;;;;;;;;;;;;;5052611;28;19992;-80
2023/10/07 16:23:52;;;;;;;;;;;;;;;;;;5051777;28;19993;-81
2023/10/07 16:26:19;;;;;;;;;;;;;;;;;;5037038;28;20085;-80
2023/10/07 16:28:45;;;;;;;;;;;;;;;;;;5061899;28;20019;-85
2023/10/07 16:31:13;;;;;;;;;;;;;;;;;;5055547;28;20010;-84
2023/10/07 16:33:40;;;;;;;;;;;;;;;;;;5040303;28;19994;-72
2023/10/07 16:36:07;;;;;;;;;;;;;;;;;;5036431;28;20040;-83
2023/10/07 16:38:34;;;;;;;;;;;;;;;;;;5038563;28;19990;-83
2023/10/07 16:41:01;;;;;;;;;;;;;;;;;;5034365;28;20418;-78
2023/10/07 16:43:27;;;;;;;;;;;;;;;;;;5039102;28;19982;-74
2023/10/07 16:45:53;;;;;;;;;;;;;;;;;;5051300;28;20048;-77
2023/10/07 16:48:19;;;;;;;;;;;;;;;;;;5052956;28;19982;-79
2023/10/07 16:50:45;;;;;;;;;;;;;;;;;;5051735;28;20013;-80
2023/10/07 16:53:11;;;;;;;;;;;;;;;;;;5052226;28;19993;-81
2023/10/07 16:55:38;;;;;;;;;;;;;;;;;;5052354;28;20024;-80
2023/10/07 16:58:04;;;;;;;;;;;;;;;;;;5051923;28;19986;-79
2023/10/07 17:00:30;;;;;;;;;;;;;;;;;;5051365;28;19982;-79
2023/10/07 17:02:55;;;;;;;;;;;;;;;;;;5052809;28;19982;-73
2023/10/07 17:05:22;;;;;;;;;;;;;;;;;;5051998;28;20023;-78
2023/10/07 17:07:49;;;;;;;;;;;;;;;;;;5051240;28;20017;-73
2023/10/07 17:10:15;;;;;;;;;;;;;;;;;;5051476;28;20013;-73
2023/10/07 17:12:41;;;;;;;;;;;;;;;;;;5049947;28;20032;-83
2023/10/07 17:15:07;;;;;;;;;;;;;;;;;;5051598;28;19986;-75
2023/10/07 17:17:33;;;;;;;;;;;;;;;;;;5051169;28;19982;-76
2023/10/07 17:20:06;;;;;;;;;;;;;;;;;;5043966;28;19986;-77
2023/10/07 17:22:32;;;;;;;;;;;;;;;;;;5032952;28;20076;-78
2023/10/07 17:24:59;;;;;;;;;;;;;;;;;;5032568;28;20040;-78
2023/10/07 17:27:25;;;;;;;;;;;;;;;;;;5032068;28;19983;-77